sensor_id;sensor_type;location;lat;lon;timestamp;P1;durP1;ratioP1;P2;durP2;ratioP2
19842;SDS011;10082;51.038;6.992;2024-03-29T00:01:03;1.88;;;0.75;;
19842;SDS011;10082;51.038;6.992;2024-03-29T00:03:29;3.28;;;0.70;;
19842;SDS011;10082;51.038;6.992;2024-03-29T00:05:55;2.05;;;1.02;;
19842;SDS011;10082;51.038;6.992;2024-03-29T00:08:21;2.28;;;0.80;;
19842;SDS011;10082;51.038;6.992;2024-03-29T00:10:49;2.65;;;0.90;;
19842;SDS011;10082;51.038;6.992;2024-03-29T00:13:15;1.55;;;0.65;;
19842;SDS011;10082;51.038;6.992;2024-03-29T00:15:41;4.07;;;0.90;;
19842;SDS011;10082;51.038;6.992;2024-03-29T00:18:07;1.58;;;0.80;;
19842;SDS011;10082;51.038;6.992;2024-03-29T00:20:33;1.42;;;0.85;;
19842;SDS011;10082;51.038;6.992;2024-03-29T00:23:03;3.50;;;0.93;;
19842;SDS011;10082;51.038;6.992;2024-03-29T00:25:29;2.35;;;0.82;;
19842;SDS011;10082;51.038;6.992;2024-03-29T00:27:57;1.85;;;0.88;;
19842;SDS011;10082;51.038;6.992;2024-03-29T00:30:23;1.08;;;0.77;;
19842;SDS011;10082;51.038;6.992;2024-03-29T00:32:49;2.40;;;0.80;;
19842;SDS011;10082;51.038;6.992;2024-03-29T00:35:15;2.88;;;0.90;;
19842;SDS011;10082;51.038;6.992;2024-03-29T00:37:42;1.25;;;0.68;;
19842;SDS011;10082;51.038;6.992;2024-03-29T00:40:08;1.75;;;0.77;;
19842;SDS011;10082;51.038;6.992;2024-03-29T00:42:35;2.33;;;1.15;;
19842;SDS011;10082;51.038;6.992;2024-03-29T00:45:05;1.77;;;0.90;;
19842;SDS011;10082;51.038;6.992;2024-03-29T00:47:32;1.92;;;0.77;;
19842;SDS011;10082;51.038;6.992;2024-03-29T00:49:58;1.85;;;0.70;;
19842;SDS011;10082;51.038;6.992;2024-03-29T00:52:25;2.92;;;0.90;;
19842;SDS011;10082;51.038;6.992;2024-03-29T00:54:51;2.72;;;0.95;;
19842;SDS011;10082;51.038;6.992;2024-03-29T00:57:17;1.17;;;0.70;;
19842;SDS011;10082;51.038;6.992;2024-03-29T00:59:43;1.42;;;0.95;;
19842;SDS011;10082;51.038;6.992;2024-03-29T01:02:12;1.55;;;0.80;;
19842;SDS011;10082;51.038;6.992;2024-03-29T01:04:38;1.50;;;0.82;;
19842;SDS011;10082;51.038;6.992;2024-03-29T01:07:07;1.33;;;0.80;;
19842;SDS011;10082;51.038;6.992;2024-03-29T01:09:34;2.88;;;0.68;;
19842;SDS011;10082;51.038;6.992;2024-03-29T01:12:00;2.53;;;0.95;;
19842;SDS011;10082;51.038;6.992;2024-03-29T01:14:26;0.95;;;0.65;;
19842;SDS011;10082;51.038;6.992;2024-03-29T01:16:52;1.15;;;0.63;;
19842;SDS011;10082;51.038;6.992;2024-03-29T01:19:20;3.20;;;0.90;;
19842;SDS011;10082;51.038;6.992;2024-03-29T01:21:46;3.22;;;0.70;;
19842;SDS011;10082;51.038;6.992;2024-03-29T01:24:12;0.70;;;0.43;;
19842;SDS011;10082;51.038;6.992;2024-03-29T01:26:38;1.17;;;0.60;;
19842;SDS011;10082;51.038;6.992;2024-03-29T01:32:26;2.08;;;1.02;;
19842;SDS011;10082;51.038;6.992;2024-03-29T01:34:54;1.60;;;0.70;;
19842;SDS011;10082;51.038;6.992;2024-03-29T01:37:20;1.10;;;0.70;;
19842;SDS011;10082;51.038;6.992;2024-03-29T01:39:47;1.80;;;0.85;;
19842;SDS011;10082;51.038;6.992;2024-03-29T01:42:13;2.00;;;1.20;;
19842;SDS011;10082;51.038;6.992;2024-03-29T01:44:39;1.83;;;0.95;;
19842;SDS011;10082;51.038;6.992;2024-03-29T01:47:06;2.13;;;0.80;;
19842;SDS011;10082;51.038;6.992;2024-03-29T01:49:33;1.60;;;0.80;;
19842;SDS011;10082;51.038;6.992;2024-03-29T01:52:03;2.28;;;0.73;;
19842;SDS011;10082;51.038;6.992;2024-03-29T01:54:32;1.58;;;0.77;;
19842;SDS011;10082;51.038;6.992;2024-03-29T01:56:59;1.30;;;0.60;;
19842;SDS011;10082;51.038;6.992;2024-03-29T01:59:27;1.65;;;0.73;;
19842;SDS011;10082;51.038;6.992;2024-03-29T02:01:55;1.55;;;1.00;;
19842;SDS011;10082;51.038;6.992;2024-03-29T02:04:22;0.95;;;0.73;;
19842;SDS011;10082;51.038;6.992;2024-03-29T02:06:51;2.67;;;0.70;;
19842;SDS011;10082;51.038;6.992;2024-03-29T02:09:20;0.77;;;0.60;;
19842;SDS011;10082;51.038;6.992;2024-03-29T02:11:47;1.80;;;0.80;;
19842;SDS011;10082;51.038;6.992;2024-03-29T02:14:16;1.27;;;0.93;;
19842;SDS011;10082;51.038;6.992;2024-03-29T02:16:43;1.58;;;0.60;;
19842;SDS011;10082;51.038;6.992;2024-03-29T02:19:10;1.08;;;0.80;;
19842;SDS011;10082;51.038;6.992;2024-03-29T02:21:38;1.27;;;0.60;;
19842;SDS011;10082;51.038;6.992;2024-03-29T02:24:12;1.98;;;0.80;;
19842;SDS011;10082;51.038;6.992;2024-03-29T02:26:41;2.50;;;0.77;;
19842;SDS011;10082;51.038;6.992;2024-03-29T02:29:10;1.00;;;0.57;;
19842;SDS011;10082;51.038;6.992;2024-03-29T02:31:37;1.42;;;0.85;;
19842;SDS011;10082;51.038;6.992;2024-03-29T02:34:04;0.88;;;0.60;;
19842;SDS011;10082;51.038;6.992;2024-03-29T02:36:33;1.55;;;0.80;;
19842;SDS011;10082;51.038;6.992;2024-03-29T02:39:00;0.73;;;0.60;;
19842;SDS011;10082;51.038;6.992;2024-03-29T02:41:28;3.80;;;1.02;;
19842;SDS011;10082;51.038;6.992;2024-03-29T02:43:55;1.20;;;0.73;;
19842;SDS011;10082;51.038;6.992;2024-03-29T02:46:22;2.60;;;1.00;;
19842;SDS011;10082;51.038;6.992;2024-03-29T02:48:49;2.33;;;0.80;;
19842;SDS011;10082;51.038;6.992;2024-03-29T02:51:14;1.48;;;0.70;;
19842;SDS011;10082;51.038;6.992;2024-03-29T02:53:41;3.15;;;1.27;;
19842;SDS011;10082;51.038;6.992;2024-03-29T02:56:08;1.48;;;0.77;;
19842;SDS011;10082;51.038;6.992;2024-03-29T02:58:36;0.98;;;0.80;;
19842;SDS011;10082;51.038;6.992;2024-03-29T03:01:07;1.48;;;0.80;;
19842;SDS011;10082;51.038;6.992;2024-03-29T03:03:33;2.33;;;1.10;;
19842;SDS011;10082;51.038;6.992;2024-03-29T03:06:00;2.90;;;1.00;;
19842;SDS011;10082;51.038;6.992;2024-03-29T03:08:26;3.97;;;1.00;;
19842;SDS011;10082;51.038;6.992;2024-03-29T03:11:10;3.25;;;0.82;;
19842;SDS011;10082;51.038;6.992;2024-03-29T03:13:38;1.17;;;0.70;;
19842;SDS011;10082;51.038;6.992;2024-03-29T03:16:05;0.90;;;0.70;;
19842;SDS011;10082;51.038;6.992;2024-03-29T03:18:32;2.35;;;0.82;;
19842;SDS011;10082;51.038;6.992;2024-03-29T03:20:58;0.98;;;0.75;;
19842;SDS011;10082;51.038;6.992;2024-03-29T03:23:25;1.77;;;0.88;;
19842;SDS011;10082;51.038;6.992;2024-03-29T03:25:55;1.08;;;0.70;;
19842;SDS011;10082;51.038;6.992;2024-03-29T03:28:24;3.65;;;1.10;;
19842;SDS011;10082;51.038;6.992;2024-03-29T03:30:53;1.63;;;0.90;;
19842;SDS011;10082;51.038;6.992;2024-03-29T03:33:19;1.42;;;0.80;;
19842;SDS011;10082;51.038;6.992;2024-03-29T03:35:47;2.67;;;0.65;;
19842;SDS011;10082;51.038;6.992;2024-03-29T03:38:13;1.13;;;0.55;;
19842;SDS011;10082;51.038;6.992;2024-03-29T03:40:42;1.85;;;0.68;;
19842;SDS011;10082;51.038;6.992;2024-03-29T03:43:08;1.25;;;0.60;;
19842;SDS011;10082;51.038;6.992;2024-03-29T03:45:36;1.50;;;1.00;;
19842;SDS011;10082;51.038;6.992;2024-03-29T03:48:05;1.42;;;0.70;;
19842;SDS011;10082;51.038;6.992;2024-03-29T03:50:36;0.93;;;0.65;;
19842;SDS011;10082;51.038;6.992;2024-03-29T03:53:02;1.77;;;0.70;;
19842;SDS011;10082;51.038;6.992;2024-03-29T03:55:30;1.88;;;0.75;;
19842;SDS011;10082;51.038;6.992;2024-03-29T03:57:56;2.33;;;1.00;;
19842;SDS011;10082;51.038;6.992;2024-03-29T04:00:23;1.27;;;0.90;;
19842;SDS011;10082;51.038;6.992;2024-03-29T04:02:49;1.55;;;0.80;;
19842;SDS011;10082;51.038;6.992;2024-03-29T04:05:18;2.15;;;1.00;;
19842;SDS011;10082;51.038;6.992;2024-03-29T04:07:45;2.17;;;0.90;;
19842;SDS011;10082;51.038;6.992;2024-03-29T04:10:13;2.50;;;0.98;;
19842;SDS011;10082;51.038;6.992;2024-03-29T04:12:39;3.47;;;0.88;;
19842;SDS011;10082;51.038;6.992;2024-03-29T04:15:07;0.95;;;0.70;;
19842;SDS011;10082;51.038;6.992;2024-03-29T04:17:35;1.23;;;0.60;;
19842;SDS011;10082;51.038;6.992;2024-03-29T04:20:01;1.45;;;0.68;;
19842;SDS011;10082;51.038;6.992;2024-03-29T04:22:31;1.27;;;0.80;;
19842;SDS011;10082;51.038;6.992;2024-03-29T04:24:57;2.30;;;1.05;;
19842;SDS011;10082;51.038;6.992;2024-03-29T04:27:25;2.83;;;0.98;;
19842;SDS011;10082;51.038;6.992;2024-03-29T04:29:51;2.10;;;0.88;;
19842;SDS011;10082;51.038;6.992;2024-03-29T04:32:18;1.42;;;0.77;;
19842;SDS011;10082;51.038;6.992;2024-03-29T04:34:46;1.23;;;0.80;;
19842;SDS011;10082;51.038;6.992;2024-03-29T04:37:14;1.52;;;0.90;;
19842;SDS011;10082;51.038;6.992;2024-03-29T04:39:43;1.25;;;0.60;;
19842;SDS011;10082;51.038;6.992;2024-03-29T04:42:11;2.83;;;0.75;;
19842;SDS011;10082;51.038;6.992;2024-03-29T04:44:41;2.10;;;0.80;;
19842;SDS011;10082;51.038;6.992;2024-03-29T04:47:08;1.40;;;0.80;;
19842;SDS011;10082;51.038;6.992;2024-03-29T04:49:35;1.95;;;0.95;;
19842;SDS011;10082;51.038;6.992;2024-03-29T04:52:03;2.10;;;0.82;;
19842;SDS011;10082;51.038;6.992;2024-03-29T04:54:30;1.58;;;0.93;;
19842;SDS011;10082;51.038;6.992;2024-03-29T04:56:58;1.55;;;0.95;;
19842;SDS011;10082;51.038;6.992;2024-03-29T04:59:26;2.45;;;0.80;;
19842;SDS011;10082;51.038;6.992;2024-03-29T05:01:54;3.33;;;1.00;;
19842;SDS011;10082;51.038;6.992;2024-03-29T05:04:22;2.15;;;0.90;;
19842;SDS011;10082;51.038;6.992;2024-03-29T05:06:57;4.10;;;1.20;;
19842;SDS011;10082;51.038;6.992;2024-03-29T05:09:25;2.00;;;1.05;;
19842;SDS011;10082;51.038;6.992;2024-03-29T05:11:52;3.88;;;1.33;;
19842;SDS011;10082;51.038;6.992;2024-03-29T05:14:21;4.22;;;1.15;;
19842;SDS011;10082;51.038;6.992;2024-03-29T05:16:48;2.00;;;1.42;;
19842;SDS011;10082;51.038;6.992;2024-03-29T05:19:16;2.05;;;1.20;;
19842;SDS011;10082;51.038;6.992;2024-03-29T05:21:43;3.25;;;1.27;;
19842;SDS011;10082;51.038;6.992;2024-03-29T05:24:10;3.25;;;2.55;;
19842;SDS011;10082;51.038;6.992;2024-03-29T05:26:37;2.90;;;2.38;;
19842;SDS011;10082;51.038;6.992;2024-03-29T05:29:06;2.42;;;2.05;;
19842;SDS011;10082;51.038;6.992;2024-03-29T05:31:34;3.60;;;2.08;;
19842;SDS011;10082;51.038;6.992;2024-03-29T05:34:01;5.45;;;1.75;;
19842;SDS011;10082;51.038;6.992;2024-03-29T05:36:29;2.97;;;1.63;;
19842;SDS011;10082;51.038;6.992;2024-03-29T05:38:57;3.47;;;1.25;;
19842;SDS011;10082;51.038;6.992;2024-03-29T05:41:24;1.90;;;1.20;;
19842;SDS011;10082;51.038;6.992;2024-03-29T05:43:51;4.25;;;1.27;;
19842;SDS011;10082;51.038;6.992;2024-03-29T05:46:18;2.30;;;1.20;;
19842;SDS011;10082;51.038;6.992;2024-03-29T05:48:46;1.90;;;1.23;;
19842;SDS011;10082;51.038;6.992;2024-03-29T05:51:14;3.10;;;1.50;;
19842;SDS011;10082;51.038;6.992;2024-03-29T05:53:41;2.03;;;1.23;;
19842;SDS011;10082;51.038;6.992;2024-03-29T05:56:08;3.67;;;1.52;;
19842;SDS011;10082;51.038;6.992;2024-03-29T05:58:35;1.92;;;1.13;;
19842;SDS011;10082;51.038;6.992;2024-03-29T06:01:02;2.15;;;1.00;;
19842;SDS011;10082;51.038;6.992;2024-03-29T06:03:29;2.00;;;1.17;;
19842;SDS011;10082;51.038;6.992;2024-03-29T06:05:57;1.92;;;1.20;;
19842;SDS011;10082;51.038;6.992;2024-03-29T06:08:24;1.70;;;1.10;;
19842;SDS011;10082;51.038;6.992;2024-03-29T06:10:53;5.07;;;1.40;;
19842;SDS011;10082;51.038;6.992;2024-03-29T06:13:22;4.50;;;1.23;;
19842;SDS011;10082;51.038;6.992;2024-03-29T06:16:15;1.92;;;1.20;;
19842;SDS011;10082;51.038;6.992;2024-03-29T06:19:00;1.67;;;1.05;;
19842;SDS011;10082;51.038;6.992;2024-03-29T06:21:29;3.13;;;1.10;;
19842;SDS011;10082;51.038;6.992;2024-03-29T06:24:03;2.60;;;1.00;;
19842;SDS011;10082;51.038;6.992;2024-03-29T06:26:31;1.73;;;0.90;;
19842;SDS011;10082;51.038;6.992;2024-03-29T06:28:58;1.70;;;1.23;;
19842;SDS011;10082;51.038;6.992;2024-03-29T06:31:27;3.00;;;1.10;;
19842;SDS011;10082;51.038;6.992;2024-03-29T06:33:55;2.63;;;1.05;;
19842;SDS011;10082;51.038;6.992;2024-03-29T06:36:23;1.35;;;1.00;;
19842;SDS011;10082;51.038;6.992;2024-03-29T06:38:52;2.00;;;1.25;;
19842;SDS011;10082;51.038;6.992;2024-03-29T06:41:19;2.95;;;1.15;;
19842;SDS011;10082;51.038;6.992;2024-03-29T06:43:46;1.70;;;0.90;;
19842;SDS011;10082;51.038;6.992;2024-03-29T06:46:13;1.38;;;0.90;;
19842;SDS011;10082;51.038;6.992;2024-03-29T06:48:41;4.80;;;1.10;;
19842;SDS011;10082;51.038;6.992;2024-03-29T06:51:09;1.73;;;1.00;;
19842;SDS011;10082;51.038;6.992;2024-03-29T06:53:45;2.42;;;1.00;;
19842;SDS011;10082;51.038;6.992;2024-03-29T06:56:14;1.67;;;1.08;;
19842;SDS011;10082;51.038;6.992;2024-03-29T06:58:41;2.10;;;1.00;;
19842;SDS011;10082;51.038;6.992;2024-03-29T07:01:08;1.58;;;0.90;;
19842;SDS011;10082;51.038;6.992;2024-03-29T07:03:35;2.50;;;1.40;;
19842;SDS011;10082;51.038;6.992;2024-03-29T07:06:03;1.85;;;1.17;;
19842;SDS011;10082;51.038;6.992;2024-03-29T07:08:30;1.52;;;0.80;;
19842;SDS011;10082;51.038;6.992;2024-03-29T07:10:58;1.85;;;1.02;;
19842;SDS011;10082;51.038;6.992;2024-03-29T07:13:27;1.45;;;0.90;;
19842;SDS011;10082;51.038;6.992;2024-03-29T07:16:02;2.33;;;1.00;;
19842;SDS011;10082;51.038;6.992;2024-03-29T07:18:29;2.78;;;1.00;;
19842;SDS011;10082;51.038;6.992;2024-03-29T07:20:57;1.70;;;1.10;;
19842;SDS011;10082;51.038;6.992;2024-03-29T07:23:24;1.00;;;0.90;;
19842;SDS011;10082;51.038;6.992;2024-03-29T07:25:58;2.25;;;1.08;;
19842;SDS011;10082;51.038;6.992;2024-03-29T07:28:27;1.48;;;1.10;;
19842;SDS011;10082;51.038;6.992;2024-03-29T07:30:54;2.38;;;1.35;;
19842;SDS011;10082;51.038;6.992;2024-03-29T07:33:21;2.88;;;1.30;;
19842;SDS011;10082;51.038;6.992;2024-03-29T07:35:51;1.52;;;1.00;;
19842;SDS011;10082;51.038;6.992;2024-03-29T07:41:22;2.17;;;1.02;;
19842;SDS011;10082;51.038;6.992;2024-03-29T07:43:54;1.77;;;0.93;;
19842;SDS011;10082;51.038;6.992;2024-03-29T07:46:27;0.95;;;0.77;;
19842;SDS011;10082;51.038;6.992;2024-03-29T07:48:54;2.40;;;1.10;;
19842;SDS011;10082;51.038;6.992;2024-03-29T07:51:21;2.00;;;1.08;;
19842;SDS011;10082;51.038;6.992;2024-03-29T07:53:48;1.75;;;0.98;;
19842;SDS011;10082;51.038;6.992;2024-03-29T07:56:16;2.20;;;1.10;;
19842;SDS011;10082;51.038;6.992;2024-03-29T07:58:43;1.77;;;1.13;;
19842;SDS011;10082;51.038;6.992;2024-03-29T08:01:17;0.75;;;0.75;;
19842;SDS011;10082;51.038;6.992;2024-03-29T08:03:44;2.20;;;1.15;;
19842;SDS011;10082;51.038;6.992;2024-03-29T08:06:11;1.42;;;0.82;;
19842;SDS011;10082;51.038;6.992;2024-03-29T08:08:38;1.80;;;1.15;;
19842;SDS011;10082;51.038;6.992;2024-03-29T08:11:05;1.85;;;1.10;;
19842;SDS011;10082;51.038;6.992;2024-03-29T08:13:35;1.65;;;0.82;;
19842;SDS011;10082;51.038;6.992;2024-03-29T08:16:02;1.48;;;0.80;;
19842;SDS011;10082;51.038;6.992;2024-03-29T08:18:31;2.72;;;0.82;;
19842;SDS011;10082;51.038;6.992;2024-03-29T08:20:59;1.17;;;0.82;;
19842;SDS011;10082;51.038;6.992;2024-03-29T08:23:28;1.35;;;0.90;;
19842;SDS011;10082;51.038;6.992;2024-03-29T08:25:56;1.15;;;0.95;;
19842;SDS011;10082;51.038;6.992;2024-03-29T08:28:23;1.25;;;0.77;;
19842;SDS011;10082;51.038;6.992;2024-03-29T08:30:57;2.42;;;1.00;;
19842;SDS011;10082;51.038;6.992;2024-03-29T08:33:25;1.70;;;0.70;;
19842;SDS011;10082;51.038;6.992;2024-03-29T08:35:53;1.55;;;1.00;;
19842;SDS011;10082;51.038;6.992;2024-03-29T08:38:21;1.02;;;0.70;;
19842;SDS011;10082;51.038;6.992;2024-03-29T08:40:48;1.92;;;1.00;;
19842;SDS011;10082;51.038;6.992;2024-03-29T08:43:16;1.67;;;1.00;;
19842;SDS011;10082;51.038;6.992;2024-03-29T08:45:47;1.55;;;0.70;;
19842;SDS011;10082;51.038;6.992;2024-03-29T08:48:14;1.35;;;0.70;;
19842;SDS011;10082;51.038;6.992;2024-03-29T08:50:41;1.17;;;0.75;;
19842;SDS011;10082;51.038;6.992;2024-03-29T08:53:10;0.80;;;0.70;;
19842;SDS011;10082;51.038;6.992;2024-03-29T08:55:37;0.93;;;0.75;;
19842;SDS011;10082;51.038;6.992;2024-03-29T08:58:05;2.15;;;0.90;;
19842;SDS011;10082;51.038;6.992;2024-03-29T09:00:31;0.95;;;0.88;;
19842;SDS011;10082;51.038;6.992;2024-03-29T09:02:59;0.93;;;0.77;;
19842;SDS011;10082;51.038;6.992;2024-03-29T09:05:26;1.45;;;0.75;;
19842;SDS011;10082;51.038;6.992;2024-03-29T09:08:00;1.05;;;0.80;;
19842;SDS011;10082;51.038;6.992;2024-03-29T09:10:29;1.00;;;0.90;;
19842;SDS011;10082;51.038;6.992;2024-03-29T09:12:56;1.48;;;1.00;;
19842;SDS011;10082;51.038;6.992;2024-03-29T09:15:24;1.52;;;0.90;;
19842;SDS011;10082;51.038;6.992;2024-03-29T09:17:51;1.80;;;0.68;;
19842;SDS011;10082;51.038;6.992;2024-03-29T09:20:20;0.77;;;0.77;;
19842;SDS011;10082;51.038;6.992;2024-03-29T09:22:49;1.08;;;0.70;;
19842;SDS011;10082;51.038;6.992;2024-03-29T09:25:17;1.20;;;0.70;;
19842;SDS011;10082;51.038;6.992;2024-03-29T09:27:46;0.80;;;0.80;;
19842;SDS011;10082;51.038;6.992;2024-03-29T09:30:17;1.73;;;0.70;;
19842;SDS011;10082;51.038;6.992;2024-03-29T09:32:45;1.13;;;0.90;;
19842;SDS011;10082;51.038;6.992;2024-03-29T09:35:13;1.63;;;0.90;;
19842;SDS011;10082;51.038;6.992;2024-03-29T09:37:40;0.93;;;0.80;;
19842;SDS011;10082;51.038;6.992;2024-03-29T09:40:08;1.50;;;0.90;;
19842;SDS011;10082;51.038;6.992;2024-03-29T09:42:37;0.88;;;0.50;;
19842;SDS011;10082;51.038;6.992;2024-03-29T09:45:08;2.08;;;0.90;;
19842;SDS011;10082;51.038;6.992;2024-03-29T09:47:37;1.23;;;0.80;;
19842;SDS011;10082;51.038;6.992;2024-03-29T09:50:06;1.35;;;0.77;;
19842;SDS011;10082;51.038;6.992;2024-03-29T09:55:58;0.90;;;0.60;;
19842;SDS011;10082;51.038;6.992;2024-03-29T09:58:26;0.80;;;0.80;;
19842;SDS011;10082;51.038;6.992;2024-03-29T10:00:56;1.50;;;0.77;;
19842;SDS011;10082;51.038;6.992;2024-03-29T10:03:24;0.82;;;0.70;;
19842;SDS011;10082;51.038;6.992;2024-03-29T10:05:55;1.88;;;0.60;;
19842;SDS011;10082;51.038;6.992;2024-03-29T10:08:24;0.60;;;0.60;;
19842;SDS011;10082;51.038;6.992;2024-03-29T10:10:52;1.27;;;0.60;;
19842;SDS011;10082;51.038;6.992;2024-03-29T10:13:20;0.70;;;0.60;;
19842;SDS011;10082;51.038;6.992;2024-03-29T10:15:49;0.50;;;0.50;;
19842;SDS011;10082;51.038;6.992;2024-03-29T10:18:20;0.65;;;0.65;;
19842;SDS011;10082;51.038;6.992;2024-03-29T10:20:57;1.38;;;0.70;;
19842;SDS011;10082;51.038;6.992;2024-03-29T10:23:25;0.85;;;0.60;;
19842;SDS011;10082;51.038;6.992;2024-03-29T10:25:52;0.68;;;0.50;;
19842;SDS011;10082;51.038;6.992;2024-03-29T10:28:19;1.75;;;0.63;;
19842;SDS011;10082;51.038;6.992;2024-03-29T10:30:47;0.85;;;0.68;;
19842;SDS011;10082;51.038;6.992;2024-03-29T10:33:14;0.57;;;0.50;;
19842;SDS011;10082;51.038;6.992;2024-03-29T10:35:43;1.05;;;0.65;;
19842;SDS011;10082;51.038;6.992;2024-03-29T10:38:11;0.70;;;0.57;;
19842;SDS011;10082;51.038;6.992;2024-03-29T10:40:39;0.68;;;0.68;;
19842;SDS011;10082;51.038;6.992;2024-03-29T10:43:07;0.90;;;0.65;;
19842;SDS011;10082;51.038;6.992;2024-03-29T10:45:37;0.82;;;0.73;;
19842;SDS011;10082;51.038;6.992;2024-03-29T10:48:05;0.70;;;0.70;;
19842;SDS011;10082;51.038;6.992;2024-03-29T10:50:35;0.80;;;0.50;;
19842;SDS011;10082;51.038;6.992;2024-03-29T10:53:06;0.80;;;0.60;;
19842;SDS011;10082;51.038;6.992;2024-03-29T10:55:34;0.77;;;0.60;;
19842;SDS011;10082;51.038;6.992;2024-03-29T10:58:02;1.05;;;0.60;;
19842;SDS011;10082;51.038;6.992;2024-03-29T11:00:32;0.90;;;0.50;;
19842;SDS011;10082;51.038;6.992;2024-03-29T11:03:05;0.60;;;0.45;;
19842;SDS011;10082;51.038;6.992;2024-03-29T11:05:41;1.33;;;0.65;;
19842;SDS011;10082;51.038;6.992;2024-03-29T11:08:16;1.48;;;0.70;;
19842;SDS011;10082;51.038;6.992;2024-03-29T11:10:47;0.90;;;0.70;;
19842;SDS011;10082;51.038;6.992;2024-03-29T11:13:19;1.52;;;1.10;;
19842;SDS011;10082;51.038;6.992;2024-03-29T11:15:52;2.05;;;1.30;;
19842;SDS011;10082;51.038;6.992;2024-03-29T11:18:20;1.25;;;0.88;;
19842;SDS011;10082;51.038;6.992;2024-03-29T11:20:49;2.35;;;1.15;;
19842;SDS011;10082;51.038;6.992;2024-03-29T11:23:21;1.33;;;1.13;;
19842;SDS011;10082;51.038;6.992;2024-03-29T11:25:49;1.38;;;0.80;;
19842;SDS011;10082;51.038;6.992;2024-03-29T11:28:22;2.95;;;1.50;;
19842;SDS011;10082;51.038;6.992;2024-03-29T11:30:51;3.20;;;1.95;;
19842;SDS011;10082;51.038;6.992;2024-03-29T11:33:25;2.97;;;1.70;;
19842;SDS011;10082;51.038;6.992;2024-03-29T11:35:56;2.55;;;1.20;;
19842;SDS011;10082;51.038;6.992;2024-03-29T11:38:38;2.05;;;1.20;;
19842;SDS011;10082;51.038;6.992;2024-03-29T11:41:10;2.78;;;1.60;;
19842;SDS011;10082;51.038;6.992;2024-03-29T11:43:38;1.40;;;1.08;;
19842;SDS011;10082;51.038;6.992;2024-03-29T11:46:05;4.78;;;2.60;;
19842;SDS011;10082;51.038;6.992;2024-03-29T11:48:33;2.45;;;2.10;;
19842;SDS011;10082;51.038;6.992;2024-03-29T11:51:02;2.92;;;2.00;;
19842;SDS011;10082;51.038;6.992;2024-03-29T11:53:30;2.88;;;1.48;;
19842;SDS011;10082;51.038;6.992;2024-03-29T11:56:00;1.92;;;1.50;;
19842;SDS011;10082;51.038;6.992;2024-03-29T11:58:29;2.50;;;1.80;;
19842;SDS011;10082;51.038;6.992;2024-03-29T12:00:58;2.63;;;1.50;;
19842;SDS011;10082;51.038;6.992;2024-03-29T12:03:26;1.50;;;0.77;;
19842;SDS011;10082;51.038;6.992;2024-03-29T12:05:56;0.60;;;0.60;;
19842;SDS011;10082;51.038;6.992;2024-03-29T12:08:28;2.58;;;0.75;;
19842;SDS011;10082;51.038;6.992;2024-03-29T12:10:55;1.60;;;0.77;;
19842;SDS011;10082;51.038;6.992;2024-03-29T12:13:25;0.52;;;0.50;;
19842;SDS011;10082;51.038;6.992;2024-03-29T12:15:52;0.50;;;0.50;;
19842;SDS011;10082;51.038;6.992;2024-03-29T12:18:20;0.80;;;0.60;;
19842;SDS011;10082;51.038;6.992;2024-03-29T12:20:49;0.77;;;0.68;;
19842;SDS011;10082;51.038;6.992;2024-03-29T12:23:18;0.73;;;0.47;;
19842;SDS011;10082;51.038;6.992;2024-03-29T12:25:46;0.65;;;0.50;;
19842;SDS011;10082;51.038;6.992;2024-03-29T12:28:14;1.27;;;0.47;;
19842;SDS011;10082;51.038;6.992;2024-03-29T12:30:45;0.40;;;0.40;;
19842;SDS011;10082;51.038;6.992;2024-03-29T12:33:13;0.40;;;0.40;;
19842;SDS011;10082;51.038;6.992;2024-03-29T12:35:41;1.40;;;1.02;;
19842;SDS011;10082;51.038;6.992;2024-03-29T12:38:10;5.22;;;2.58;;
19842;SDS011;10082;51.038;6.992;2024-03-29T12:40:40;1.20;;;1.00;;
19842;SDS011;10082;51.038;6.992;2024-03-29T12:43:09;3.60;;;1.75;;
19842;SDS011;10082;51.038;6.992;2024-03-29T12:45:38;0.60;;;0.60;;
19842;SDS011;10082;51.038;6.992;2024-03-29T12:48:10;0.40;;;0.40;;
19842;SDS011;10082;51.038;6.992;2024-03-29T12:50:39;0.80;;;0.50;;
19842;SDS011;10082;51.038;6.992;2024-03-29T12:53:08;0.65;;;0.57;;
19842;SDS011;10082;51.038;6.992;2024-03-29T12:55:36;0.68;;;0.52;;
19842;SDS011;10082;51.038;6.992;2024-03-29T12:58:07;0.50;;;0.50;;
19842;SDS011;10082;51.038;6.992;2024-03-29T13:00:36;0.80;;;0.50;;
19842;SDS011;10082;51.038;6.992;2024-03-29T13:03:03;0.40;;;0.40;;
19842;SDS011;10082;51.038;6.992;2024-03-29T13:05:33;1.10;;;0.38;;
19842;SDS011;10082;51.038;6.992;2024-03-29T13:08:05;0.70;;;0.43;;
19842;SDS011;10082;51.038;6.992;2024-03-29T13:10:34;0.40;;;0.40;;
19842;SDS011;10082;51.038;6.992;2024-03-29T13:13:02;0.45;;;0.45;;
19842;SDS011;10082;51.038;6.992;2024-03-29T13:15:31;0.45;;;0.45;;
19842;SDS011;10082;51.038;6.992;2024-03-29T13:17:59;0.43;;;0.38;;
19842;SDS011;10082;51.038;6.992;2024-03-29T13:20:27;2.03;;;0.50;;
19842;SDS011;10082;51.038;6.992;2024-03-29T13:22:56;0.45;;;0.45;;
19842;SDS011;10082;51.038;6.992;2024-03-29T13:25:24;0.70;;;0.40;;
19842;SDS011;10082;51.038;6.992;2024-03-29T13:27:52;0.50;;;0.50;;
19842;SDS011;10082;51.038;6.992;2024-03-29T13:30:20;0.40;;;0.40;;
19842;SDS011;10082;51.038;6.992;2024-03-29T13:32:48;0.40;;;0.40;;
19842;SDS011;10082;51.038;6.992;2024-03-29T13:35:15;0.30;;;0.30;;
19842;SDS011;10082;51.038;6.992;2024-03-29T13:37:46;0.60;;;0.40;;
19842;SDS011;10082;51.038;6.992;2024-03-29T13:40:16;0.32;;;0.32;;
19842;SDS011;10082;51.038;6.992;2024-03-29T13:42:44;0.50;;;0.50;;
19842;SDS011;10082;51.038;6.992;2024-03-29T13:45:11;0.45;;;0.40;;
19842;SDS011;10082;51.038;6.992;2024-03-29T13:47:41;0.30;;;0.30;;
19842;SDS011;10082;51.038;6.992;2024-03-29T13:50:09;0.50;;;0.50;;
19842;SDS011;10082;51.038;6.992;2024-03-29T13:52:40;0.40;;;0.40;;
19842;SDS011;10082;51.038;6.992;2024-03-29T13:55:08;0.40;;;0.40;;
19842;SDS011;10082;51.038;6.992;2024-03-29T13:57:37;0.40;;;0.40;;
19842;SDS011;10082;51.038;6.992;2024-03-29T14:00:04;0.40;;;0.40;;
19842;SDS011;10082;51.038;6.992;2024-03-29T14:02:32;0.50;;;0.40;;
19842;SDS011;10082;51.038;6.992;2024-03-29T14:05:00;0.55;;;0.40;;
19842;SDS011;10082;51.038;6.992;2024-03-29T14:07:27;0.30;;;0.30;;
19842;SDS011;10082;51.038;6.992;2024-03-29T14:09:54;0.40;;;0.40;;
19842;SDS011;10082;51.038;6.992;2024-03-29T14:12:21;0.40;;;0.40;;
19842;SDS011;10082;51.038;6.992;2024-03-29T14:14:51;0.40;;;0.40;;
19842;SDS011;10082;51.038;6.992;2024-03-29T14:17:18;0.40;;;0.40;;
19842;SDS011;10082;51.038;6.992;2024-03-29T14:19:46;0.50;;;0.50;;
19842;SDS011;10082;51.038;6.992;2024-03-29T14:22:15;0.30;;;0.30;;
19842;SDS011;10082;51.038;6.992;2024-03-29T14:24:44;0.40;;;0.40;;
19842;SDS011;10082;51.038;6.992;2024-03-29T14:27:11;0.60;;;0.50;;
19842;SDS011;10082;51.038;6.992;2024-03-29T14:29:39;0.47;;;0.47;;
19842;SDS011;10082;51.038;6.992;2024-03-29T14:32:12;0.40;;;0.40;;
19842;SDS011;10082;51.038;6.992;2024-03-29T14:34:39;0.65;;;0.40;;
19842;SDS011;10082;51.038;6.992;2024-03-29T14:37:11;0.40;;;0.40;;
19842;SDS011;10082;51.038;6.992;2024-03-29T14:39:42;0.40;;;0.40;;
19842;SDS011;10082;51.038;6.992;2024-03-29T14:42:09;0.40;;;0.40;;
19842;SDS011;10082;51.038;6.992;2024-03-29T14:44:39;0.50;;;0.45;;
19842;SDS011;10082;51.038;6.992;2024-03-29T14:47:06;0.45;;;0.45;;
19842;SDS011;10082;51.038;6.992;2024-03-29T14:49:34;0.50;;;0.50;;
19842;SDS011;10082;51.038;6.992;2024-03-29T14:52:01;1.00;;;0.60;;
19842;SDS011;10082;51.038;6.992;2024-03-29T14:54:29;0.35;;;0.35;;
19842;SDS011;10082;51.038;6.992;2024-03-29T14:56:56;0.35;;;0.35;;
19842;SDS011;10082;51.038;6.992;2024-03-29T14:59:23;0.50;;;0.45;;
19842;SDS011;10082;51.038;6.992;2024-03-29T15:01:51;0.50;;;0.50;;
19842;SDS011;10082;51.038;6.992;2024-03-29T15:04:18;0.55;;;0.50;;